sensor_id;sensor_type;location;lat;lon;timestamp;P1;durP1;ratioP1;P2;durP2;ratioP2
438;SDS011;206;48.782;9.252;2022-11-20T00:01:15;10.80;;;8.10;;
438;SDS011;206;48.782;9.252;2022-11-20T00:03:43;13.03;;;8.93;;
438;SDS011;206;48.782;9.252;2022-11-20T00:06:11;10.87;;;8.37;;
438;SDS011;206;48.782;9.252;2022-11-20T00:08:38;8.80;;;7.70;;
438;SDS011;206;48.782;9.252;2022-11-20T00:13:34;11.27;;;8.53;;
438;SDS011;206;48.782;9.252;2022-11-20T00:16:00;9.97;;;9.07;;
438;SDS011;206;48.782;9.252;2022-11-20T00:18:27;14.33;;;8.40;;
438;SDS011;206;48.782;9.252;2022-11-20T00:20:53;10.07;;;9.13;;
438;SDS011;206;48.782;9.252;2022-11-20T00:23:25;14.30;;;8.23;;
438;SDS011;206;48.782;9.252;2022-11-20T00:25:50;9.17;;;7.50;;
438;SDS011;206;48.782;9.252;2022-11-20T00:28:16;9.73;;;9.13;;
438;SDS011;206;48.782;9.252;2022-11-20T00:30:41;8.50;;;8.03;;
438;SDS011;206;48.782;9.252;2022-11-20T00:33:07;9.10;;;8.53;;
438;SDS011;206;48.782;9.252;2022-11-20T00:35:32;11.93;;;9.70;;
438;SDS011;206;48.782;9.252;2022-11-20T00:37:58;14.57;;;11.97;;
438;SDS011;206;48.782;9.252;2022-11-20T00:40:23;14.47;;;12.40;;
438;SDS011;206;48.782;9.252;2022-11-20T00:42:49;11.40;;;9.93;;
438;SDS011;206;48.782;9.252;2022-11-20T00:45:14;10.87;;;8.83;;
438;SDS011;206;48.782;9.252;2022-11-20T00:47:40;11.60;;;8.97;;
438;SDS011;206;48.782;9.252;2022-11-20T00:50:06;9.63;;;8.23;;
438;SDS011;206;48.782;9.252;2022-11-20T00:52:31;11.83;;;8.60;;
438;SDS011;206;48.782;9.252;2022-11-20T00:54:57;10.07;;;7.63;;
438;SDS011;206;48.782;9.252;2022-11-20T00:57:22;6.40;;;6.00;;
438;SDS011;206;48.782;9.252;2022-11-20T00:59:48;8.37;;;6.20;;
438;SDS011;206;48.782;9.252;2022-11-20T01:02:14;5.17;;;4.43;;
438;SDS011;206;48.782;9.252;2022-11-20T01:04:41;17.30;;;4.63;;
438;SDS011;206;48.782;9.252;2022-11-20T01:07:07;6.50;;;4.80;;
438;SDS011;206;48.782;9.252;2022-11-20T01:09:32;5.60;;;4.23;;
438;SDS011;206;48.782;9.252;2022-11-20T01:11:58;5.37;;;4.50;;
438;SDS011;206;48.782;9.252;2022-11-20T01:14:24;4.30;;;3.97;;
438;SDS011;206;48.782;9.252;2022-11-20T01:16:50;4.33;;;3.63;;
438;SDS011;206;48.782;9.252;2022-11-20T01:19:17;3.53;;;3.00;;
438;SDS011;206;48.782;9.252;2022-11-20T01:21:49;4.40;;;3.50;;
438;SDS011;206;48.782;9.252;2022-11-20T01:24:17;5.40;;;3.37;;
438;SDS011;206;48.782;9.252;2022-11-20T01:26:43;6.03;;;3.53;;
438;SDS011;206;48.782;9.252;2022-11-20T01:29:14;4.40;;;3.50;;
438;SDS011;206;48.782;9.252;2022-11-20T01:31:49;4.97;;;2.87;;
438;SDS011;206;48.782;9.252;2022-11-20T01:34:17;3.67;;;3.33;;
438;SDS011;206;48.782;9.252;2022-11-20T01:36:44;3.37;;;3.17;;
438;SDS011;206;48.782;9.252;2022-11-20T01:39:11;5.00;;;3.60;;
438;SDS011;206;48.782;9.252;2022-11-20T01:41:39;3.50;;;3.10;;
438;SDS011;206;48.782;9.252;2022-11-20T01:47:14;6.50;;;3.83;;
438;SDS011;206;48.782;9.252;2022-11-20T01:49:46;4.37;;;3.30;;
438;SDS011;206;48.782;9.252;2022-11-20T01:52:17;2.93;;;2.60;;
438;SDS011;206;48.782;9.252;2022-11-20T01:54:49;3.23;;;2.93;;
438;SDS011;206;48.782;9.252;2022-11-20T01:57:19;5.70;;;3.43;;
438;SDS011;206;48.782;9.252;2022-11-20T01:59:49;3.63;;;3.20;;
438;SDS011;206;48.782;9.252;2022-11-20T02:02:22;5.27;;;4.00;;
438;SDS011;206;48.782;9.252;2022-11-20T02:04:49;2.90;;;2.40;;
438;SDS011;206;48.782;9.252;2022-11-20T02:07:19;6.00;;;2.80;;
438;SDS011;206;48.782;9.252;2022-11-20T02:09:45;4.67;;;2.83;;
438;SDS011;206;48.782;9.252;2022-11-20T02:12:11;3.40;;;3.00;;
438;SDS011;206;48.782;9.252;2022-11-20T02:14:57;4.53;;;2.60;;
438;SDS011;206;48.782;9.252;2022-11-20T02:17:23;2.93;;;2.77;;
438;SDS011;206;48.782;9.252;2022-11-20T02:19:50;3.33;;;3.13;;
438;SDS011;206;48.782;9.252;2022-11-20T02:22:21;4.60;;;3.10;;
438;SDS011;206;48.782;9.252;2022-11-20T02:25:12;3.33;;;2.90;;
438;SDS011;206;48.782;9.252;2022-11-20T02:27:38;3.97;;;3.10;;
438;SDS011;206;48.782;9.252;2022-11-20T02:30:05;3.80;;;2.87;;
438;SDS011;206;48.782;9.252;2022-11-20T02:32:36;4.33;;;2.90;;
438;SDS011;206;48.782;9.252;2022-11-20T02:35:45;4.33;;;2.80;;
438;SDS011;206;48.782;9.252;2022-11-20T02:37:52;4.13;;;2.57;;
438;SDS011;206;48.782;9.252;2022-11-20T02:40:19;2.80;;;2.30;;
438;SDS011;206;48.782;9.252;2022-11-20T02:42:45;2.20;;;2.00;;
438;SDS011;206;48.782;9.252;2022-11-20T02:45:11;2.30;;;2.10;;
438;SDS011;206;48.782;9.252;2022-11-20T02:47:37;2.43;;;2.27;;
438;SDS011;206;48.782;9.252;2022-11-20T02:50:03;2.80;;;2.33;;
438;SDS011;206;48.782;9.252;2022-11-20T02:52:29;2.90;;;2.57;;
438;SDS011;206;48.782;9.252;2022-11-20T02:54:55;3.03;;;2.77;;
438;SDS011;206;48.782;9.252;2022-11-20T02:57:20;3.00;;;2.37;;
438;SDS011;206;48.782;9.252;2022-11-20T02:59:46;3.07;;;2.37;;
438;SDS011;206;48.782;9.252;2022-11-20T03:02:11;2.80;;;2.50;;
438;SDS011;206;48.782;9.252;2022-11-20T03:04:37;5.67;;;2.83;;
438;SDS011;206;48.782;9.252;2022-11-20T03:07:03;2.73;;;2.37;;
438;SDS011;206;48.782;9.252;2022-11-20T03:09:29;2.53;;;2.33;;
438;SDS011;206;48.782;9.252;2022-11-20T03:11:55;2.77;;;2.60;;
438;SDS011;206;48.782;9.252;2022-11-20T03:14:20;5.10;;;3.23;;
438;SDS011;206;48.782;9.252;2022-11-20T03:16:46;2.93;;;2.73;;
438;SDS011;206;48.782;9.252;2022-11-20T03:19:11;6.40;;;3.70;;
438;SDS011;206;48.782;9.252;2022-11-20T03:21:38;4.00;;;3.07;;
438;SDS011;206;48.782;9.252;2022-11-20T03:24:04;3.50;;;2.87;;
438;SDS011;206;48.782;9.252;2022-11-20T03:26:30;3.43;;;2.80;;
438;SDS011;206;48.782;9.252;2022-11-20T03:28:56;5.33;;;3.10;;
438;SDS011;206;48.782;9.252;2022-11-20T03:31:25;3.60;;;3.20;;
438;SDS011;206;48.782;9.252;2022-11-20T03:33:52;5.10;;;2.83;;
438;SDS011;206;48.782;9.252;2022-11-20T03:36:19;4.00;;;2.70;;
438;SDS011;206;48.782;9.252;2022-11-20T03:38:45;3.60;;;3.03;;
438;SDS011;206;48.782;9.252;2022-11-20T03:41:12;5.93;;;3.17;;
438;SDS011;206;48.782;9.252;2022-11-20T03:43:40;3.70;;;3.10;;
438;SDS011;206;48.782;9.252;2022-11-20T03:46:06;2.37;;;2.20;;
438;SDS011;206;48.782;9.252;2022-11-20T03:48:32;2.43;;;2.23;;
438;SDS011;206;48.782;9.252;2022-11-20T03:51:10;4.43;;;3.30;;
438;SDS011;206;48.782;9.252;2022-11-20T03:53:36;2.80;;;2.60;;
438;SDS011;206;48.782;9.252;2022-11-20T03:56:03;3.30;;;3.13;;
438;SDS011;206;48.782;9.252;2022-11-20T03:58:29;3.77;;;3.13;;
438;SDS011;206;48.782;9.252;2022-11-20T04:00:54;4.70;;;2.80;;
438;SDS011;206;48.782;9.252;2022-11-20T04:03:20;4.40;;;3.13;;
438;SDS011;206;48.782;9.252;2022-11-20T04:05:45;2.70;;;2.43;;
438;SDS011;206;48.782;9.252;2022-11-20T04:08:11;3.00;;;2.60;;
438;SDS011;206;48.782;9.252;2022-11-20T04:10:36;5.30;;;3.67;;
438;SDS011;206;48.782;9.252;2022-11-20T04:13:02;2.87;;;2.67;;
438;SDS011;206;48.782;9.252;2022-11-20T04:15:28;3.20;;;3.00;;
438;SDS011;206;48.782;9.252;2022-11-20T04:17:54;4.00;;;3.00;;
438;SDS011;206;48.782;9.252;2022-11-20T04:20:19;3.17;;;2.60;;
438;SDS011;206;48.782;9.252;2022-11-20T04:22:45;3.13;;;2.90;;
438;SDS011;206;48.782;9.252;2022-11-20T04:25:10;3.40;;;2.70;;
438;SDS011;206;48.782;9.252;2022-11-20T04:27:36;2.97;;;2.73;;
438;SDS011;206;48.782;9.252;2022-11-20T04:30:02;4.00;;;3.23;;
438;SDS011;206;48.782;9.252;2022-11-20T04:32:27;2.93;;;2.63;;
438;SDS011;206;48.782;9.252;2022-11-20T04:34:53;3.77;;;3.07;;
438;SDS011;206;48.782;9.252;2022-11-20T04:37:19;3.80;;;2.90;;
438;SDS011;206;48.782;9.252;2022-11-20T04:39:44;2.67;;;2.47;;
438;SDS011;206;48.782;9.252;2022-11-20T04:42:10;4.97;;;3.27;;
438;SDS011;206;48.782;9.252;2022-11-20T04:44:54;3.10;;;2.70;;
438;SDS011;206;48.782;9.252;2022-11-20T04:47:20;3.03;;;2.87;;
438;SDS011;206;48.782;9.252;2022-11-20T04:49:45;4.07;;;2.70;;
438;SDS011;206;48.782;9.252;2022-11-20T04:52:11;3.40;;;3.20;;
438;SDS011;206;48.782;9.252;2022-11-20T04:54:37;3.70;;;2.77;;
438;SDS011;206;48.782;9.252;2022-11-20T04:57:03;3.37;;;2.73;;
438;SDS011;206;48.782;9.252;2022-11-20T04:59:28;3.57;;;2.50;;
438;SDS011;206;48.782;9.252;2022-11-20T05:01:54;2.40;;;2.20;;
438;SDS011;206;48.782;9.252;2022-11-20T05:04:19;3.00;;;2.80;;
438;SDS011;206;48.782;9.252;2022-11-20T05:06:45;7.63;;;2.80;;
438;SDS011;206;48.782;9.252;2022-11-20T05:09:11;10.50;;;3.20;;
438;SDS011;206;48.782;9.252;2022-11-20T05:11:37;5.97;;;2.90;;
438;SDS011;206;48.782;9.252;2022-11-20T05:14:03;3.23;;;3.00;;
438;SDS011;206;48.782;9.252;2022-11-20T05:16:28;2.60;;;2.40;;
438;SDS011;206;48.782;9.252;2022-11-20T05:18:55;3.53;;;2.50;;
438;SDS011;206;48.782;9.252;2022-11-20T05:21:21;3.23;;;3.03;;
438;SDS011;206;48.782;9.252;2022-11-20T05:23:47;2.83;;;2.63;;
438;SDS011;206;48.782;9.252;2022-11-20T05:26:17;2.80;;;2.40;;
438;SDS011;206;48.782;9.252;2022-11-20T05:28:44;2.67;;;2.47;;
438;SDS011;206;48.782;9.252;2022-11-20T05:31:12;6.83;;;3.10;;
438;SDS011;206;48.782;9.252;2022-11-20T05:33:39;7.60;;;2.60;;
438;SDS011;206;48.782;9.252;2022-11-20T05:36:06;2.57;;;2.07;;
438;SDS011;206;48.782;9.252;2022-11-20T05:38:32;2.40;;;2.20;;
438;SDS011;206;48.782;9.252;2022-11-20T05:41:08;5.03;;;2.80;;
438;SDS011;206;48.782;9.252;2022-11-20T05:43:39;4.13;;;2.67;;
438;SDS011;206;48.782;9.252;2022-11-20T05:46:06;2.57;;;2.37;;
438;SDS011;206;48.782;9.252;2022-11-20T05:48:33;2.83;;;2.63;;
438;SDS011;206;48.782;9.252;2022-11-20T05:51:00;4.53;;;3.27;;
438;SDS011;206;48.782;9.252;2022-11-20T05:53:28;3.90;;;3.20;;
438;SDS011;206;48.782;9.252;2022-11-20T05:56:10;3.70;;;2.47;;
438;SDS011;206;48.782;9.252;2022-11-20T05:58:37;3.03;;;2.70;;
438;SDS011;206;48.782;9.252;2022-11-20T06:01:10;5.20;;;2.50;;
438;SDS011;206;48.782;9.252;2022-11-20T06:03:39;2.47;;;2.27;;
438;SDS011;206;48.782;9.252;2022-11-20T06:06:07;4.03;;;3.30;;
438;SDS011;206;48.782;9.252;2022-11-20T06:08:33;3.10;;;2.77;;
438;SDS011;206;48.782;9.252;2022-11-20T06:11:02;3.70;;;2.50;;
438;SDS011;206;48.782;9.252;2022-11-20T06:13:32;2.23;;;2.03;;
438;SDS011;206;48.782;9.252;2022-11-20T06:15:57;2.77;;;2.57;;
438;SDS011;206;48.782;9.252;2022-11-20T06:18:23;3.20;;;2.47;;
438;SDS011;206;48.782;9.252;2022-11-20T06:20:58;3.20;;;2.50;;
438;SDS011;206;48.782;9.252;2022-11-20T06:23:34;3.00;;;2.83;;
438;SDS011;206;48.782;9.252;2022-11-20T06:26:01;2.67;;;2.47;;
438;SDS011;206;48.782;9.252;2022-11-20T06:28:28;2.00;;;1.90;;
438;SDS011;206;48.782;9.252;2022-11-20T06:30:54;2.60;;;2.00;;
438;SDS011;206;48.782;9.252;2022-11-20T06:33:20;3.33;;;2.80;;
438;SDS011;206;48.782;9.252;2022-11-20T06:35:45;4.13;;;2.77;;
438;SDS011;206;48.782;9.252;2022-11-20T06:38:11;5.23;;;2.00;;
438;SDS011;206;48.782;9.252;2022-11-20T06:40:39;2.40;;;2.20;;
438;SDS011;206;48.782;9.252;2022-11-20T06:43:05;2.30;;;2.10;;
438;SDS011;206;48.782;9.252;2022-11-20T06:45:31;2.13;;;1.90;;
438;SDS011;206;48.782;9.252;2022-11-20T06:47:57;3.27;;;2.47;;
438;SDS011;206;48.782;9.252;2022-11-20T06:50:23;3.00;;;2.67;;
438;SDS011;206;48.782;9.252;2022-11-20T06:52:48;2.43;;;2.30;;
438;SDS011;206;48.782;9.252;2022-11-20T06:55:14;3.40;;;2.50;;
438;SDS011;206;48.782;9.252;2022-11-20T06:57:40;2.67;;;2.50;;
438;SDS011;206;48.782;9.252;2022-11-20T07:00:05;3.50;;;2.80;;
438;SDS011;206;48.782;9.252;2022-11-20T07:02:31;2.97;;;2.70;;
438;SDS011;206;48.782;9.252;2022-11-20T07:04:57;3.77;;;1.93;;
438;SDS011;206;48.782;9.252;2022-11-20T07:07:22;3.37;;;2.80;;
438;SDS011;206;48.782;9.252;2022-11-20T07:09:48;3.00;;;2.53;;
438;SDS011;206;48.782;9.252;2022-11-20T07:12:13;3.67;;;2.77;;
438;SDS011;206;48.782;9.252;2022-11-20T07:14:39;3.20;;;2.80;;
438;SDS011;206;48.782;9.252;2022-11-20T07:17:04;4.73;;;2.20;;
438;SDS011;206;48.782;9.252;2022-11-20T07:19:30;2.57;;;2.23;;
438;SDS011;206;48.782;9.252;2022-11-20T07:21:56;2.90;;;2.33;;
438;SDS011;206;48.782;9.252;2022-11-20T07:24:21;3.53;;;2.63;;
438;SDS011;206;48.782;9.252;2022-11-20T07:26:47;3.37;;;2.87;;
438;SDS011;206;48.782;9.252;2022-11-20T07:29:15;4.60;;;3.30;;
438;SDS011;206;48.782;9.252;2022-11-20T07:31:41;1.73;;;1.70;;
438;SDS011;206;48.782;9.252;2022-11-20T07:34:08;3.47;;;2.93;;
438;SDS011;206;48.782;9.252;2022-11-20T07:36:34;6.47;;;5.90;;
438;SDS011;206;48.782;9.252;2022-11-20T07:38:59;7.10;;;6.70;;
438;SDS011;206;48.782;9.252;2022-11-20T07:41:25;3.43;;;3.27;;
438;SDS011;206;48.782;9.252;2022-11-20T07:43:51;3.10;;;2.73;;
438;SDS011;206;48.782;9.252;2022-11-20T07:46:16;6.13;;;3.63;;
438;SDS011;206;48.782;9.252;2022-11-20T07:48:42;2.83;;;2.70;;
438;SDS011;206;48.782;9.252;2022-11-20T07:51:07;8.50;;;3.20;;
438;SDS011;206;48.782;9.252;2022-11-20T07:53:33;5.70;;;5.03;;
438;SDS011;206;48.782;9.252;2022-11-20T07:55:59;3.50;;;3.10;;
438;SDS011;206;48.782;9.252;2022-11-20T07:58:26;6.20;;;3.27;;
438;SDS011;206;48.782;9.252;2022-11-20T08:00:53;4.27;;;3.70;;
438;SDS011;206;48.782;9.252;2022-11-20T08:03:19;6.03;;;5.40;;
438;SDS011;206;48.782;9.252;2022-11-20T08:05:44;5.87;;;5.13;;
438;SDS011;206;48.782;9.252;2022-11-20T08:08:10;6.20;;;5.13;;
438;SDS011;206;48.782;9.252;2022-11-20T08:10:35;5.77;;;4.50;;
438;SDS011;206;48.782;9.252;2022-11-20T08:13:01;3.83;;;3.10;;
438;SDS011;206;48.782;9.252;2022-11-20T08:15:49;7.90;;;4.97;;
438;SDS011;206;48.782;9.252;2022-11-20T08:18:18;2.80;;;2.60;;
438;SDS011;206;48.782;9.252;2022-11-20T08:20:44;2.60;;;2.03;;
438;SDS011;206;48.782;9.252;2022-11-20T08:23:09;2.73;;;2.00;;
438;SDS011;206;48.782;9.252;2022-11-20T08:25:36;2.03;;;1.90;;
438;SDS011;206;48.782;9.252;2022-11-20T08:28:03;2.83;;;2.60;;
438;SDS011;206;48.782;9.252;2022-11-20T08:30:31;10.93;;;7.37;;
438;SDS011;206;48.782;9.252;2022-11-20T08:33:04;4.43;;;3.63;;
438;SDS011;206;48.782;9.252;2022-11-20T08:35:37;8.10;;;6.23;;
438;SDS011;206;48.782;9.252;2022-11-20T08:38:04;14.33;;;8.47;;
438;SDS011;206;48.782;9.252;2022-11-20T08:40:31;5.93;;;5.63;;
438;SDS011;206;48.782;9.252;2022-11-20T08:42:57;10.23;;;9.73;;
438;SDS011;206;48.782;9.252;2022-11-20T08:45:22;9.30;;;8.80;;
438;SDS011;206;48.782;9.252;2022-11-20T08:47:48;2.90;;;2.70;;
438;SDS011;206;48.782;9.252;2022-11-20T08:50:14;4.30;;;4.10;;
438;SDS011;206;48.782;9.252;2022-11-20T08:52:41;7.17;;;6.80;;
438;SDS011;206;48.782;9.252;2022-11-20T08:55:08;2.63;;;2.43;;
438;SDS011;206;48.782;9.252;2022-11-20T08:57:35;2.97;;;2.23;;
438;SDS011;206;48.782;9.252;2022-11-20T09:00:03;2.53;;;2.00;;
438;SDS011;206;48.782;9.252;2022-11-20T09:02:29;3.60;;;1.97;;
438;SDS011;206;48.782;9.252;2022-11-20T09:04:55;2.13;;;1.60;;
438;SDS011;206;48.782;9.252;2022-11-20T09:07:20;1.80;;;1.70;;
438;SDS011;206;48.782;9.252;2022-11-20T09:09:46;1.50;;;1.37;;
438;SDS011;206;48.782;9.252;2022-11-20T09:12:12;2.30;;;1.60;;
438;SDS011;206;48.782;9.252;2022-11-20T09:14:38;4.40;;;2.23;;
438;SDS011;206;48.782;9.252;2022-11-20T09:17:04;2.67;;;1.67;;
438;SDS011;206;48.782;9.252;2022-11-20T09:19:29;1.43;;;1.40;;
438;SDS011;206;48.782;9.252;2022-11-20T09:21:55;2.00;;;1.70;;
438;SDS011;206;48.782;9.252;2022-11-20T09:24:20;2.07;;;1.40;;
438;SDS011;206;48.782;9.252;2022-11-20T09:26:46;3.90;;;1.00;;
438;SDS011;206;48.782;9.252;2022-11-20T09:29:12;1.20;;;0.93;;
438;SDS011;206;48.782;9.252;2022-11-20T09:31:38;1.70;;;1.60;;
438;SDS011;206;48.782;9.252;2022-11-20T09:34:03;2.40;;;1.10;;
438;SDS011;206;48.782;9.252;2022-11-20T09:36:29;1.27;;;0.87;;
438;SDS011;206;48.782;9.252;2022-11-20T09:38:54;0.90;;;0.90;;
438;SDS011;206;48.782;9.252;2022-11-20T09:47:07;3.10;;;2.40;;
438;SDS011;206;48.782;9.252;2022-11-20T09:50:01;3.17;;;1.50;;
438;SDS011;206;48.782;9.252;2022-11-20T09:55:20;1.30;;;0.70;;
438;SDS011;206;48.782;9.252;2022-11-20T09:57:47;1.23;;;0.93;;
438;SDS011;206;48.782;9.252;2022-11-20T10:00:15;2.17;;;0.80;;
438;SDS011;206;48.782;9.252;2022-11-20T10:05:18;2.93;;;1.90;;
438;SDS011;206;48.782;9.252;2022-11-20T10:07:59;2.67;;;1.80;;
438;SDS011;206;48.782;9.252;2022-11-20T10:10:43;4.00;;;0.90;;
438;SDS011;206;48.782;9.252;2022-11-20T10:24:51;1.10;;;0.67;;
438;SDS011;206;48.782;9.252;2022-11-20T10:30:21;0.80;;;0.80;;
438;SDS011;206;48.782;9.252;2022-11-20T10:32:54;1.93;;;0.90;;
438;SDS011;206;48.782;9.252;2022-11-20T10:35:43;1.10;;;0.93;;
438;SDS011;206;48.782;9.252;2022-11-20T10:38:19;1.00;;;0.90;;
438;SDS011;206;48.782;9.252;2022-11-20T10:40:49;1.10;;;0.80;;
438;SDS011;206;48.782;9.252;2022-11-20T10:43:39;1.47;;;1.10;;
438;SDS011;206;48.782;9.252;2022-11-20T10:46:08;1.87;;;1.00;;
438;SDS011;206;48.782;9.252;2022-11-20T10:48:38;4.93;;;1.13;;
438;SDS011;206;48.782;9.252;2022-11-20T10:53:58;1.20;;;0.90;;
438;SDS011;206;48.782;9.252;2022-11-20T10:56:41;0.90;;;0.80;;
438;SDS011;206;48.782;9.252;2022-11-20T11:01:42;1.80;;;1.10;;
438;SDS011;206;48.782;9.252;2022-11-20T11:04:15;2.03;;;0.87;;
438;SDS011;206;48.782;9.252;2022-11-20T11:06:53;1.00;;;0.80;;
438;SDS011;206;48.782;9.252;2022-11-20T11:09:33;1.73;;;1.33;;
438;SDS011;206;48.782;9.252;2022-11-20T11:12:05;2.87;;;2.67;;
438;SDS011;206;48.782;9.252;2022-11-20T11:14:41;4.20;;;1.80;;
438;SDS011;206;48.782;9.252;2022-11-20T11:17:20;1.27;;;1.03;;
438;SDS011;206;48.782;9.252;2022-11-20T11:20:04;1.63;;;1.17;;
438;SDS011;206;48.782;9.252;2022-11-20T11:22:31;1.57;;;1.30;;
438;SDS011;206;48.782;9.252;2022-11-20T11:24:58;1.30;;;1.00;;
438;SDS011;206;48.782;9.252;2022-11-20T11:27:24;1.20;;;1.10;;
438;SDS011;206;48.782;9.252;2022-11-20T11:29:50;1.40;;;1.30;;
438;SDS011;206;48.782;9.252;2022-11-20T11:32:30;2.20;;;0.87;;
438;SDS011;206;48.782;9.252;2022-11-20T11:35:03;1.00;;;0.90;;
438;SDS011;206;48.782;9.252;2022-11-20T11:37:34;1.90;;;1.10;;
438;SDS011;206;48.782;9.252;2022-11-20T11:40:05;1.70;;;1.57;;
438;SDS011;206;48.782;9.252;2022-11-20T11:42:35;1.77;;;0.93;;
438;SDS011;206;48.782;9.252;2022-11-20T11:45:11;2.30;;;1.37;;
438;SDS011;206;48.782;9.252;2022-11-20T11:52:56;1.80;;;1.23;;
438;SDS011;206;48.782;9.252;2022-11-20T12:01:03;2.60;;;1.47;;
438;SDS011;206;48.782;9.252;2022-11-20T12:03:42;1.57;;;1.50;;
438;SDS011;206;48.782;9.252;2022-11-20T12:06:32;3.47;;;3.20;;
438;SDS011;206;48.782;9.252;2022-11-20T12:09:03;3.73;;;2.03;;
438;SDS011;206;48.782;9.252;2022-11-20T12:11:53;2.17;;;1.80;;
438;SDS011;206;48.782;9.252;2022-11-20T12:14:37;1.67;;;1.33;;
438;SDS011;206;48.782;9.252;2022-11-20T12:17:07;3.93;;;1.90;;
438;SDS011;206;48.782;9.252;2022-11-20T12:19:37;2.50;;;1.30;;
438;SDS011;206;48.782;9.252;2022-11-20T12:22:22;2.67;;;1.63;;
438;SDS011;206;48.782;9.252;2022-11-20T12:30:31;2.23;;;1.60;;
438;SDS011;206;48.782;9.252;2022-11-20T12:53:39;1.47;;;1.00;;
438;SDS011;206;48.782;9.252;2022-11-20T12:59:04;8.33;;;1.43;;
438;SDS011;206;48.782;9.252;2022-11-20T13:01:42;4.87;;;4.57;;
438;SDS011;206;48.782;9.252;2022-11-20T13:07:26;3.00;;;1.87;;
438;SDS011;206;48.782;9.252;2022-11-20T13:09:53;2.30;;;1.03;;
438;SDS011;206;48.782;9.252;2022-11-20T13:12:23;1.90;;;1.03;;
438;SDS011;206;48.782;9.252;2022-11-20T13:14:55;1.53;;;0.80;;
438;SDS011;206;48.782;9.252;2022-11-20T13:17:33;7.37;;;5.10;;
438;SDS011;206;48.782;9.252;2022-11-20T13:20:04;1.47;;;0.90;;
438;SDS011;206;48.782;9.252;2022-11-20T13:22:44;1.03;;;0.90;;
438;SDS011;206;48.782;9.252;2022-11-20T13:27:57;0.80;;;0.70;;
438;SDS011;206;48.782;9.252;2022-11-20T13:30:28;3.20;;;1.53;;
438;SDS011;206;48.782;9.252;2022-11-20T13:35:34;2.40;;;1.03;;
438;SDS011;206;48.782;9.252;2022-11-20T13:38:09;1.43;;;1.33;;
438;SDS011;206;48.782;9.252;2022-11-20T13:43:46;1.17;;;0.90;;
438;SDS011;206;48.782;9.252;2022-11-20T13:46:12;2.57;;;1.27;;
438;SDS011;206;48.782;9.252;2022-11-20T13:48:42;1.93;;;0.80;;
438;SDS011;206;48.782;9.252;2022-11-20T13:51:28;2.40;;;0.60;;
438;SDS011;206;48.782;9.252;2022-11-20T13:56:59;1.80;;;1.40;;
438;SDS011;206;48.782;9.252;2022-11-20T14:02:15;2.50;;;0.80;;
438;SDS011;206;48.782;9.252;2022-11-20T14:04:43;1.50;;;1.00;;
438;SDS011;206;48.782;9.252;2022-11-20T14:07:12;3.00;;;1.10;;
438;SDS011;206;48.782;9.252;2022-11-20T14:09:38;1.67;;;1.30;;
438;SDS011;206;48.782;9.252;2022-11-20T14:12:12;0.97;;;0.63;;
438;SDS011;206;48.782;9.252;2022-11-20T14:14:47;1.97;;;1.10;;
438;SDS011;206;48.782;9.252;2022-11-20T14:17:19;4.70;;;1.23;;
438;SDS011;206;48.782;9.252;2022-11-20T14:19:53;2.13;;;1.03;;
438;SDS011;206;48.782;9.252;2022-11-20T14:22:23;0.90;;;0.80;;
438;SDS011;206;48.782;9.252;2022-11-20T14:27:28;1.70;;;1.40;;
438;SDS011;206;48.782;9.252;2022-11-20T14:29:54;1.73;;;1.03;;
438;SDS011;206;48.782;9.252;2022-11-20T14:32:20;3.97;;;1.30;;
438;SDS011;206;48.782;9.252;2022-11-20T14:34:51;1.73;;;1.03;;
438;SDS011;206;48.782;9.252;2022-11-20T14:37:18;1.57;;;1.30;;
438;SDS011;206;48.782;9.252;2022-11-20T14:39:53;2.10;;;1.00;;
438;SDS011;206;48.782;9.252;2022-11-20T14:42:22;1.60;;;1.10;;
438;SDS011;206;48.782;9.252;2022-11-20T14:44:49;7.10;;;1.50;;
438;SDS011;206;48.782;9.252;2022-11-20T14:47:28;3.57;;;1.40;;
438;SDS011;206;48.782;9.252;2022-11-20T14:49:55;1.70;;;1.47;;
438;SDS011;206;48.782;9.252;2022-11-20T14:52:23;1.67;;;1.10;;
438;SDS011;206;48.782;9.252;2022-11-20T14:54:51;2.80;;;1.60;;
438;SDS011;206;48.782;9.252;2022-11-20T14:57:28;2.20;;;1.57;;
438;SDS011;206;48.782;9.252;2022-11-20T15:00:29;1.40;;;1.20;;
438;SDS011;206;48.782;9.252;2022-11-20T15:02:48;2.20;;;1.23;;
438;SDS011;206;48.782;9.252;2022-11-20T15:05:16;2.27;;;1.40;;
438;SDS011;206;48.782;9.252;2022-11-20T15:07:44;1.00;;;1.00;;
438;SDS011;206;48.782;9.252;2022-11-20T15:15:26;5.30;;;2.43;;
438;SDS011;206;48.782;9.252;2022-11-20T15:18:15;3.57;;;2.50;;
438;SDS011;206;48.782;9.252;2022-11-20T15:20:44;3.30;;;2.23;;
438;SDS011;206;48.782;9.252;2022-11-20T15:23:11;2.67;;;2.30;;
438;SDS011;206;48.782;9.252;2022-11-20T15:25:41;2.97;;;1.97;;
438;SDS011;206;48.782;9.252;2022-11-20T15:28:49;2.10;;;1.80;;
438;SDS011;206;48.782;9.252;2022-11-20T15:30:58;4.03;;;2.27;;
438;SDS011;206;48.782;9.252;2022-11-20T15:33:24;2.30;;;2.10;;
438;SDS011;206;48.782;9.252;2022-11-20T15:35:50;3.50;;;2.23;;
438;SDS011;206;48.782;9.252;2022-11-20T15:38:16;2.80;;;1.90;;
438;SDS011;206;48.782;9.252;2022-11-20T15:40:41;2.60;;;1.73;;
438;SDS011;206;48.782;9.252;2022-11-20T15:43:07;4.20;;;2.63;;
438;SDS011;206;48.782;9.252;2022-11-20T15:48:21;8.20;;;4.17;;
438;SDS011;206;48.782;9.252;2022-11-20T15:50:52;3.83;;;2.40;;
438;SDS011;206;48.782;9.252;2022-11-20T15:53:30;1.97;;;1.87;;
438;SDS011;206;48.782;9.252;2022-11-20T15:55:56;3.50;;;1.90;;
438;SDS011;206;48.782;9.252;2022-11-20T15:58:21;8.70;;;6.20;;
438;SDS011;206;48.782;9.252;2022-11-20T16:00:49;5.73;;;3.10;;
438;SDS011;206;48.782;9.252;2022-11-20T16:03:15;2.30;;;2.00;;
438;SDS011;206;48.782;9.252;2022-11-20T16:05:42;2.80;;;2.60;;
438;SDS011;206;48.782;9.252;2022-11-20T16:08:07;4.00;;;1.90;;
438;SDS011;206;48.782;9.252;2022-11-20T16:10:33;3.57;;;1.70;;
438;SDS011;206;48.782;9.252;2022-11-20T16:12:59;4.43;;;2.00;;
438;SDS011;206;48.782;9.252;2022-11-20T16:15:44;8.73;;;6.90;;
438;SDS011;206;48.782;9.252;2022-11-20T16:18:18;8.90;;;7.67;;
438;SDS011;206;48.782;9.252;2022-11-20T16:20:45;4.30;;;3.67;;
438;SDS011;206;48.782;9.252;2022-11-20T16:23:13;8.70;;;4.13;;
438;SDS011;206;48.782;9.252;2022-11-20T16:25:40;11.87;;;4.80;;
438;SDS011;206;48.782;9.252;2022-11-20T16:28:06;4.13;;;3.90;;
438;SDS011;206;48.782;9.252;2022-11-20T16:30:33;3.57;;;2.27;;
438;SDS011;206;48.782;9.252;2022-11-20T16:32:59;4.40;;;3.00;;
438;SDS011;206;48.782;9.252;2022-11-20T16:35:26;3.80;;;2.43;;
438;SDS011;206;48.782;9.252;2022-11-20T16:37:52;2.70;;;2.20;;
438;SDS011;206;48.782;9.252;2022-11-20T16:40:18;2.30;;;2.00;;
438;SDS011;206;48.782;9.252;2022-11-20T16:42:44;1.93;;;1.50;;
438;SDS011;206;48.782;9.252;2022-11-20T16:45:21;2.10;;;1.97;;
438;SDS011;206;48.782;9.252;2022-11-20T16:47:50;2.53;;;2.30;;
438;SDS011;206;48.782;9.252;2022-11-20T16:50:16;3.53;;;2.07;;
438;SDS011;206;48.782;9.252;2022-11-20T16:52:41;3.00;;;2.53;;
438;SDS011;206;48.782;9.252;2022-11-20T16:55:10;3.10;;;2.03;;
438;SDS011;206;48.782;9.252;2022-11-20T16:57:39;2.73;;;2.17;;
438;SDS011;206;48.782;9.252;2022-11-20T17:00:10;5.40;;;2.20;;
438;SDS011;206;48.782;9.252;2022-11-20T17:02:35;6.23;;;4.30;;
438;SDS011;206;48.782;9.252;2022-11-20T17:05:07;6.57;;;2.57;;
438;SDS011;206;48.782;9.252;2022-11-20T17:07:35;4.73;;;2.80;;
438;SDS011;206;48.782;9.252;2022-11-20T17:10:01;3.70;;;2.80;;
438;SDS011;206;48.782;9.252;2022-11-20T17:12:33;3.80;;;2.60;;
438;SDS011;206;48.782;9.252;2022-11-20T17:15:10;4.00;;;3.47;;
438;SDS011;206;48.782;9.252;2022-11-20T17:17:36;4.40;;;3.80;;
438;SDS011;206;48.782;9.252;2022-11-20T17:20:10;8.73;;;7.10;;
438;SDS011;206;48.782;9.252;2022-11-20T17:22:42;5.43;;;4.53;;
438;SDS011;206;48.782;9.252;2022-11-20T17:25:07;5.20;;;3.63;;
438;SDS011;206;48.782;9.252;2022-11-20T17:27:33;4.87;;;2.50;;
438;SDS011;206;48.782;9.252;2022-11-20T17:29:59;3.90;;;2.60;;
438;SDS011;206;48.782;9.252;2022-11-20T17:32:24;4.90;;;3.73;;
438;SDS011;206;48.782;9.252;2022-11-20T17:34:50;8.60;;;6.17;;
438;SDS011;206;48.782;9.252;2022-11-20T17:37:18;6.87;;;4.83;;
438;SDS011;206;48.782;9.252;2022-11-20T17:39:47;9.27;;;8.57;;